createdAt,value
2023-04-09T00:00:43.666Z,1010.17
2023-04-09T00:01:43.650Z,1010.17
2023-04-09T00:02:43.659Z,1010.17
2023-04-09T00:03:43.719Z,1010.18
2023-04-09T00:04:43.681Z,1010.21
2023-04-09T00:05:43.600Z,1010.21
2023-04-09T00:06:43.587Z,1010.20
2023-04-09T00:07:44.608Z,1010.20
2023-04-09T00:08:43.538Z,1010.19
2023-04-09T00:09:43.524Z,1010.20
2023-04-09T00:10:43.514Z,1010.17
2023-04-09T00:11:43.515Z,1010.23
2023-04-09T00:12:43.487Z,1010.18
2023-04-09T00:13:43.464Z,1010.16
2023-04-09T00:14:43.455Z,1010.16
2023-04-09T00:15:43.433Z,1010.12
2023-04-09T00:16:43.459Z,1010.14
2023-04-09T00:17:43.429Z,1010.08
2023-04-09T00:18:43.401Z,1010.08
2023-04-09T00:19:43.384Z,1010.12
2023-04-09T00:20:43.382Z,1010.08
2023-04-09T00:21:43.373Z,1010.13
2023-04-09T00:22:43.348Z,1010.12
2023-04-09T00:23:43.325Z,1010.10
2023-04-09T00:24:43.331Z,1010.06
2023-04-09T00:25:43.305Z,1010.07
2023-04-09T00:26:43.304Z,1010.06
2023-04-09T00:27:43.275Z,1010.05
2023-04-09T00:28:43.266Z,1009.99
2023-04-09T00:29:43.244Z,1010.04
2023-04-09T00:30:43.248Z,1010.02
2023-04-09T00:31:43.284Z,1010.06
2023-04-09T00:32:43.243Z,1010.02
2023-04-09T00:33:43.235Z,1010.02
2023-04-09T00:34:43.177Z,1010.00
2023-04-09T00:35:43.264Z,1009.96
2023-04-09T00:36:43.182Z,1009.95
2023-04-09T00:37:43.134Z,1009.96
2023-04-09T00:38:43.127Z,1009.92
2023-04-09T00:39:43.113Z,1009.89
2023-04-09T00:40:43.102Z,1009.90
2023-04-09T00:41:43.104Z,1009.93
2023-04-09T00:42:43.078Z,1009.92
2023-04-09T00:43:43.063Z,1009.96
2023-04-09T00:44:43.085Z,1009.94
2023-04-09T00:45:43.076Z,1009.94
2023-04-09T00:46:43.036Z,1009.91
2023-04-09T00:47:43.076Z,1009.89
2023-04-09T00:48:42.996Z,1009.91
2023-04-09T00:49:42.971Z,1009.90
2023-04-09T00:50:42.972Z,1009.87
2023-04-09T00:51:42.971Z,1009.93
2023-04-09T00:52:42.943Z,1009.90
2023-04-09T00:53:42.921Z,1009.89
2023-04-09T00:54:42.909Z,1009.90
2023-04-09T00:55:42.903Z,1009.90
2023-04-09T00:56:42.917Z,1009.90
2023-04-09T00:57:42.864Z,1009.91
2023-04-09T00:58:42.845Z,1009.94
2023-04-09T00:59:42.836Z,1009.94
2023-04-09T01:00:42.883Z,1009.94
2023-04-09T01:01:42.897Z,1009.92
2023-04-09T01:02:42.983Z,1009.94
2023-04-09T01:03:42.856Z,1009.97
2023-04-09T01:04:42.770Z,1009.96
2023-04-09T01:05:42.755Z,1010.00
2023-04-09T01:06:42.753Z,1009.93
2023-04-09T01:07:42.721Z,1009.94
2023-04-09T01:08:42.719Z,1009.95
2023-04-09T01:09:42.712Z,1009.91
2023-04-09T01:10:42.687Z,1009.91
2023-04-09T01:11:42.692Z,1009.93
2023-04-09T01:12:42.658Z,1009.95
2023-04-09T01:13:42.657Z,1009.91
2023-04-09T01:14:42.621Z,1009.94
2023-04-09T01:15:42.618Z,1009.97
2023-04-09T01:16:42.673Z,1009.95
2023-04-09T01:17:42.645Z,1009.96
2023-04-09T01:18:42.583Z,1009.94
2023-04-09T01:19:42.551Z,1009.92
2023-04-09T01:20:42.557Z,1009.97
2023-04-09T01:21:42.528Z,1009.91
2023-04-09T01:22:42.534Z,1009.89
2023-04-09T01:23:42.499Z,1009.93
2023-04-09T01:24:42.499Z,1009.92
2023-04-09T01:25:42.475Z,1009.89
2023-04-09T01:26:42.462Z,1009.87
2023-04-09T01:27:42.483Z,1009.89
2023-04-09T01:28:42.441Z,1009.94
2023-04-09T01:29:42.422Z,1009.97
2023-04-09T01:30:42.430Z,1009.97
2023-04-09T01:31:42.390Z,1009.96
2023-04-09T01:32:42.510Z,1009.99
2023-04-09T01:33:42.375Z,1009.98
2023-04-09T01:34:42.367Z,1009.99
2023-04-09T01:35:42.383Z,1009.99
2023-04-09T01:36:42.331Z,1009.99
2023-04-09T01:37:42.342Z,1010.00
2023-04-09T01:38:42.308Z,1010.00
2023-04-09T01:39:42.278Z,1010.00
2023-04-09T01:40:42.276Z,1009.98
2023-04-09T01:41:42.248Z,1010.01
2023-04-09T01:42:42.253Z,1009.97
2023-04-09T01:43:42.260Z,1010.01
2023-04-09T01:44:42.214Z,1009.97
2023-04-09T01:45:42.213Z,1009.97
2023-04-09T01:46:42.302Z,1009.98
2023-04-09T01:47:42.217Z,1009.98
2023-04-09T01:48:42.188Z,1009.98
2023-04-09T01:49:42.153Z,1010.01
2023-04-09T01:50:42.142Z,1009.99
2023-04-09T01:51:42.124Z,1009.99
2023-04-09T01:52:42.137Z,1010.04
2023-04-09T01:53:42.102Z,1010.04
2023-04-09T01:54:42.085Z,1010.03
2023-04-09T01:55:42.068Z,1010.01
2023-04-09T01:56:42.078Z,1010.01
2023-04-09T01:57:42.065Z,1010.02
2023-04-09T01:58:42.051Z,1010.04
2023-04-09T01:59:42.016Z,1010.02
2023-04-09T02:00:42.008Z,1010.02
2023-04-09T02:01:42.061Z,1010.01
2023-04-09T02:02:42.094Z,1010.06
2023-04-09T02:03:42.139Z,1010.04
2023-04-09T02:04:41.954Z,1010.06
2023-04-09T02:05:41.938Z,1010.09
2023-04-09T02:06:41.923Z,1010.10
2023-04-09T02:07:41.904Z,1010.10
2023-04-09T02:08:41.924Z,1010.11
2023-04-09T02:09:41.873Z,1010.13
2023-04-09T02:10:41.877Z,1010.12
2023-04-09T02:11:41.862Z,1010.13
2023-04-09T02:12:41.848Z,1010.16
2023-04-09T02:13:41.842Z,1010.12
2023-04-09T02:14:41.808Z,1010.13
2023-04-09T02:15:41.828Z,1010.09
2023-04-09T02:16:41.808Z,1010.10
2023-04-09T02:17:41.820Z,1010.10
2023-04-09T02:18:41.777Z,1010.10
2023-04-09T02:19:41.746Z,1010.07
2023-04-09T02:20:41.750Z,1010.11
2023-04-09T02:21:41.729Z,1010.06
2023-04-09T02:22:41.708Z,1010.07
2023-04-09T02:23:41.713Z,1010.08
2023-04-09T02:24:41.671Z,1010.10
2023-04-09T02:25:41.661Z,1010.09
2023-04-09T02:26:41.656Z,1010.06
2023-04-09T02:27:41.637Z,1010.06
2023-04-09T02:28:41.623Z,1010.06
2023-04-09T02:29:41.624Z,1010.04
2023-04-09T02:30:41.660Z,1010.08
2023-04-09T02:31:41.585Z,1010.04
2023-04-09T02:32:41.694Z,1010.06
2023-04-09T02:33:41.565Z,1010.06
2023-04-09T02:34:41.564Z,1010.05
2023-04-09T02:35:41.578Z,1010.07
2023-04-09T02:36:41.580Z,1010.02
2023-04-09T02:37:41.556Z,1010.05
2023-04-09T02:38:41.558Z,1010.06
2023-04-09T02:39:41.475Z,1010.05
2023-04-09T02:40:41.508Z,1010.04
2023-04-09T02:41:41.449Z,1010.07
2023-04-09T02:42:41.433Z,1010.03
2023-04-09T02:43:41.419Z,1010.06
2023-04-09T02:44:41.431Z,1010.06
2023-04-09T02:45:41.378Z,1010.05
2023-04-09T02:46:41.515Z,1010.07
2023-04-09T02:47:41.372Z,1010.07
2023-04-09T02:48:41.367Z,1010.07
2023-04-09T02:49:41.354Z,1010.08
2023-04-09T02:50:41.339Z,1010.10
2023-04-09T02:51:41.287Z,1010.08
2023-04-09T02:52:41.304Z,1010.08
2023-04-09T02:53:41.291Z,1010.07
2023-04-09T02:54:41.284Z,1010.07
2023-04-09T02:55:41.253Z,1010.06
2023-04-09T02:56:41.278Z,1010.07
2023-04-09T02:57:41.224Z,1010.07
2023-04-09T02:58:41.223Z,1010.09
2023-04-09T02:59:41.224Z,1010.03
2023-04-09T03:00:41.182Z,1010.09
2023-04-09T03:01:41.313Z,1010.06
2023-04-09T03:02:41.272Z,1010.06
2023-04-09T03:03:41.240Z,1010.01
2023-04-09T03:04:41.154Z,1010.03
2023-04-09T03:05:41.122Z,1010.03
2023-04-09T03:06:41.118Z,1009.99
2023-04-09T03:07:41.097Z,1009.97
2023-04-09T03:08:41.080Z,1009.96
2023-04-09T03:09:41.084Z,1009.97
2023-04-09T03:10:41.054Z,1009.95
2023-04-09T03:11:41.062Z,1009.94
2023-04-09T03:12:41.035Z,1009.93
2023-04-09T03:13:41.019Z,1009.97
2023-04-09T03:14:41.012Z,1009.91
2023-04-09T03:15:41.041Z,1009.91
2023-04-09T03:16:40.997Z,1009.93
2023-04-09T03:17:40.988Z,1009.87
2023-04-09T03:18:40.962Z,1009.93
2023-04-09T03:19:40.992Z,1009.90
2023-04-09T03:20:40.932Z,1009.91
2023-04-09T03:21:41.338Z,1009.89
2023-04-09T03:22:41.612Z,1009.89
2023-04-09T03:23:40.892Z,1009.88
2023-04-09T03:24:40.893Z,1009.87
2023-04-09T03:25:40.917Z,1009.86
2023-04-09T03:26:40.835Z,1009.85
2023-04-09T03:27:40.909Z,1009.83
2023-04-09T03:28:40.855Z,1009.83
2023-04-09T03:29:40.943Z,1009.82
2023-04-09T03:30:40.825Z,1009.83
2023-04-09T03:31:41.023Z,1009.82
2023-04-09T03:32:40.794Z,1009.85
2023-04-09T03:33:40.825Z,1009.80
2023-04-09T03:34:40.762Z,1009.84
2023-04-09T03:35:40.920Z,1009.85
2023-04-09T03:36:40.805Z,1009.84
2023-04-09T03:37:40.697Z,1009.81
2023-04-09T03:38:40.767Z,1009.83
2023-04-09T03:39:40.674Z,1009.84
2023-04-09T03:40:40.975Z,1009.83
2023-04-09T03:41:40.645Z,1009.79
2023-04-09T03:42:40.649Z,1009.78
2023-04-09T03:43:40.696Z,1009.78
2023-04-09T03:44:40.600Z,1009.82
2023-04-09T03:45:40.637Z,1009.79
2023-04-09T03:46:40.614Z,1009.74
2023-04-09T03:47:40.596Z,1009.75
2023-04-09T03:48:40.665Z,1009.77
2023-04-09T03:49:40.562Z,1009.81
2023-04-09T03:50:40.541Z,1009.79
2023-04-09T03:51:40.513Z,1009.76
2023-04-09T03:52:40.487Z,1009.79
2023-04-09T03:53:40.504Z,1009.77
2023-04-09T03:54:40.466Z,1009.76
2023-04-09T03:55:40.477Z,1009.76
2023-04-09T03:56:40.501Z,1009.76
2023-04-09T03:57:40.426Z,1009.77
2023-04-09T03:58:40.754Z,1009.77
2023-04-09T03:59:40.410Z,1009.77
2023-04-09T04:00:40.521Z,1009.77
2023-04-09T04:01:40.461Z,1009.76
2023-04-09T04:02:40.686Z,1009.77
2023-04-09T04:03:40.563Z,1009.78
2023-04-09T04:04:40.434Z,1009.80
2023-04-09T04:05:40.333Z,1009.79
2023-04-09T04:06:40.346Z,1009.75
2023-04-09T04:07:40.297Z,1009.79
2023-04-09T04:08:40.367Z,1009.81
2023-04-09T04:09:40.321Z,1009.81
2023-04-09T04:10:40.261Z,1009.78
2023-04-09T04:11:40.236Z,1009.77
2023-04-09T04:12:40.262Z,1009.81
2023-04-09T04:13:40.205Z,1009.78
2023-04-09T04:14:40.233Z,1009.80
2023-04-09T04:15:40.212Z,1009.78
2023-04-09T04:16:40.211Z,1009.77
2023-04-09T04:17:40.197Z,1009.83
2023-04-09T04:18:40.131Z,1009.80
2023-04-09T04:19:40.140Z,1009.80
2023-04-09T04:20:40.151Z,1009.82
2023-04-09T04:21:40.105Z,1009.81
2023-04-09T04:22:40.082Z,1009.85
2023-04-09T04:23:40.075Z,1009.85
2023-04-09T04:24:40.051Z,1009.82
2023-04-09T04:25:40.565Z,1009.85
2023-04-09T04:26:40.036Z,1009.87
2023-04-09T04:27:40.028Z,1009.86
2023-04-09T04:28:40.024Z,1009.85
2023-04-09T04:29:40.012Z,1009.86
2023-04-09T04:30:40.123Z,1009.83
2023-04-09T04:31:40.051Z,1009.88
2023-04-09T04:32:39.971Z,1009.86
2023-04-09T04:33:39.940Z,1009.85
2023-04-09T04:34:39.946Z,1009.87
2023-04-09T04:35:39.972Z,1009.88
2023-04-09T04:36:39.899Z,1009.88
2023-04-09T04:37:40.018Z,1009.88
2023-04-09T04:38:39.943Z,1009.89
2023-04-09T04:39:39.865Z,1009.93
2023-04-09T04:40:39.857Z,1009.91
2023-04-09T04:41:39.856Z,1009.88
2023-04-09T04:42:39.883Z,1009.89
2023-04-09T04:43:40.003Z,1009.90
2023-04-09T04:44:39.788Z,1009.89
2023-04-09T04:45:39.826Z,1009.90
2023-04-09T04:46:39.852Z,1009.92
2023-04-09T04:47:39.918Z,1009.89
2023-04-09T04:48:39.754Z,1009.93
2023-04-09T04:49:39.725Z,1009.90
2023-04-09T04:50:39.721Z,1009.90
2023-04-09T04:51:39.707Z,1009.90
2023-04-09T04:52:39.708Z,1009.88
2023-04-09T04:53:39.662Z,1009.90
2023-04-09T04:54:39.671Z,1009.89
2023-04-09T04:55:39.690Z,1009.91
2023-04-09T04:56:39.632Z,1009.90
2023-04-09T04:57:39.628Z,1009.90
2023-04-09T04:58:39.601Z,1009.88
2023-04-09T04:59:39.596Z,1009.89
2023-04-09T05:00:39.613Z,1009.90
2023-04-09T05:01:39.722Z,1009.93
2023-04-09T05:02:39.629Z,1009.95
2023-04-09T05:03:46.920Z,1009.91
2023-04-09T05:04:39.517Z,1009.88
2023-04-09T05:05:39.552Z,1009.88
2023-04-09T05:06:39.508Z,1009.93
2023-04-09T05:07:39.485Z,1009.93
2023-04-09T05:08:39.471Z,1009.91
2023-04-09T05:09:39.468Z,1009.92
2023-04-09T05:10:39.456Z,1009.92
2023-04-09T05:11:39.434Z,1009.93
2023-04-09T05:12:39.424Z,1009.94
2023-04-09T05:13:39.409Z,1010.00
2023-04-09T05:14:39.390Z,1009.99
2023-04-09T05:15:39.422Z,1009.95
2023-04-09T05:16:39.429Z,1009.97
2023-04-09T05:17:39.386Z,1009.96
2023-04-09T05:18:39.339Z,1009.99
2023-04-09T05:19:39.338Z,1009.96
2023-04-09T05:20:39.357Z,1009.96
2023-04-09T05:21:39.314Z,1009.94
2023-04-09T05:22:39.289Z,1009.95
2023-04-09T05:23:39.283Z,1009.96
2023-04-09T05:24:39.263Z,1010.01
2023-04-09T05:25:39.256Z,1009.97
2023-04-09T05:26:39.245Z,1009.96
2023-04-09T05:27:39.236Z,1009.98
2023-04-09T05:28:39.217Z,1009.96
2023-04-09T05:29:39.220Z,1009.98
2023-04-09T05:30:39.357Z,1009.98
2023-04-09T05:31:39.195Z,1009.97
2023-04-09T05:32:39.182Z,1009.98
2023-04-09T05:33:39.175Z,1010.01
2023-04-09T05:34:39.134Z,1010.00
2023-04-09T05:35:39.156Z,1010.00
2023-04-09T05:36:39.142Z,1010.00
2023-04-09T05:37:39.113Z,1010.00
2023-04-09T05:38:39.081Z,1010.03
2023-04-09T05:39:39.058Z,1009.99
2023-04-09T05:40:39.055Z,1009.99
2023-04-09T05:41:39.072Z,1010.02
2023-04-09T05:42:39.056Z,1009.99
2023-04-09T05:43:39.022Z,1010.00
2023-04-09T05:44:39.042Z,1010.00
2023-04-09T05:45:39.178Z,1010.00
2023-04-09T05:46:38.998Z,1010.01
2023-04-09T05:47:38.999Z,1010.04
2023-04-09T05:48:38.975Z,1010.03
2023-04-09T05:49:38.953Z,1010.02
2023-04-09T05:50:51.504Z,1010.01
2023-04-09T05:51:39.970Z,1010.03
2023-04-09T05:52:38.926Z,1010.03
2023-04-09T05:53:38.893Z,1010.01
2023-04-09T05:54:38.881Z,1010.00
2023-04-09T05:55:38.878Z,1010.04
2023-04-09T05:56:38.878Z,1010.04
2023-04-09T05:57:38.841Z,1010.04
2023-04-09T05:58:38.824Z,1010.04
2023-04-09T05:59:38.816Z,1010.04
2023-04-09T06:00:38.796Z,1010.05
2023-04-09T06:01:38.799Z,1010.04
2023-04-09T06:02:38.812Z,1010.08
2023-04-09T06:03:38.950Z,1010.08
2023-04-09T06:04:38.786Z,1010.08
2023-04-09T06:05:38.743Z,1010.11
2023-04-09T06:06:38.736Z,1010.09
2023-04-09T06:07:38.710Z,1010.07
2023-04-09T06:08:38.698Z,1010.07
2023-04-09T06:09:38.683Z,1010.08
2023-04-09T06:10:40.464Z,1010.09
2023-04-09T06:11:38.683Z,1010.12
2023-04-09T06:12:38.649Z,1010.11
2023-04-09T06:13:38.629Z,1010.09
2023-04-09T06:14:38.617Z,1010.07
2023-04-09T06:15:38.726Z,1010.11
2023-04-09T06:16:38.604Z,1010.04
2023-04-09T06:17:38.615Z,1010.06
2023-04-09T06:18:38.567Z,1010.07
2023-04-09T06:19:38.560Z,1010.07
2023-04-09T06:20:38.536Z,1010.07
2023-04-09T06:21:38.556Z,1010.06
2023-04-09T06:22:38.509Z,1010.09
2023-04-09T06:23:38.502Z,1010.09
2023-04-09T06:24:38.486Z,1010.11
2023-04-09T06:25:38.500Z,1010.14
2023-04-09T06:26:38.486Z,1010.15
2023-04-09T06:27:38.450Z,1010.13
2023-04-09T06:28:38.439Z,1010.12
2023-04-09T06:29:38.481Z,1010.13
2023-04-09T06:30:38.424Z,1010.13
2023-04-09T06:31:38.409Z,1010.13
2023-04-09T06:32:51.076Z,1010.15
2023-04-09T06:33:39.366Z,1010.17
2023-04-09T06:34:38.359Z,1010.18
2023-04-09T06:35:38.395Z,1010.17
2023-04-09T06:36:38.321Z,1010.21
2023-04-09T06:37:38.337Z,1010.19
2023-04-09T06:38:38.301Z,1010.15
2023-04-09T06:39:40.379Z,1010.17
2023-04-09T06:40:38.273Z,1010.22
2023-04-09T06:41:38.286Z,1010.19
2023-04-09T06:42:38.262Z,1010.20
2023-04-09T06:43:38.224Z,1010.22
2023-04-09T06:44:38.216Z,1010.23
2023-04-09T06:45:40.834Z,1010.20
2023-04-09T06:46:38.192Z,1010.22
2023-04-09T06:47:38.239Z,1010.20
2023-04-09T06:48:38.160Z,1010.19
2023-04-09T06:49:38.143Z,1010.20
2023-04-09T06:50:38.148Z,1010.21
2023-04-09T06:51:38.123Z,1010.20
2023-04-09T06:52:38.120Z,1010.17
2023-04-09T06:53:38.161Z,1010.20
2023-04-09T06:54:38.081Z,1010.20
2023-04-09T06:55:38.067Z,1010.17
2023-04-09T06:56:38.035Z,1010.16
2023-04-09T06:57:38.062Z,1010.18
2023-04-09T06:58:38.127Z,1010.22
2023-04-09T06:59:38.017Z,1010.13
2023-04-09T07:00:38.004Z,1010.09
2023-04-09T07:01:38.081Z,1010.12
2023-04-09T07:02:38.171Z,1010.10
2023-04-09T07:03:38.115Z,1010.13
2023-04-09T07:04:38.080Z,1010.13
2023-04-09T07:05:38.045Z,1010.14
2023-04-09T07:06:37.910Z,1010.10
2023-04-09T07:07:37.921Z,1010.12
2023-04-09T07:08:37.880Z,1010.17
2023-04-09T07:09:37.878Z,1010.20
2023-04-09T07:10:37.852Z,1010.15
2023-04-09T07:11:37.843Z,1010.09
2023-04-09T07:12:37.858Z,1010.16
2023-04-09T07:13:37.818Z,1010.14
2023-04-09T07:14:37.808Z,1010.16
2023-04-09T07:15:39.488Z,1010.14
2023-04-09T07:16:37.808Z,1010.15
2023-04-09T07:17:37.854Z,1010.13
2023-04-09T07:18:37.773Z,1010.12
2023-04-09T07:19:37.756Z,1010.13
2023-04-09T07:20:37.730Z,1010.14
2023-04-09T07:21:37.724Z,1010.17
2023-04-09T07:22:37.750Z,1010.13
2023-04-09T07:23:37.680Z,1010.13
2023-04-09T07:24:37.795Z,1010.14
2023-04-09T07:25:37.647Z,1010.15
2023-04-09T07:26:37.644Z,1010.15
2023-04-09T07:27:37.623Z,1010.16
2023-04-09T07:28:37.636Z,1010.14
2023-04-09T07:29:37.715Z,1010.20
2023-04-09T07:30:37.604Z,1010.19
2023-04-09T07:31:37.643Z,1010.25
2023-04-09T07:32:37.605Z,1010.22
2023-04-09T07:33:37.585Z,1010.20
2023-04-09T07:34:37.544Z,1010.27
2023-04-09T07:35:37.575Z,1010.23
2023-04-09T07:36:37.514Z,1010.23
2023-04-09T07:37:37.506Z,1010.24
2023-04-09T07:38:37.506Z,1010.24
2023-04-09T07:39:37.468Z,1010.21
2023-04-09T07:40:37.453Z,1010.24
2023-04-09T07:41:37.448Z,1010.22
2023-04-09T07:42:37.435Z,1010.26
2023-04-09T07:43:37.630Z,1010.26
2023-04-09T07:44:37.419Z,1010.27
2023-04-09T07:45:37.390Z,1010.24
2023-04-09T07:46:37.401Z,1010.24
2023-04-09T07:47:37.363Z,1010.25
2023-04-09T07:48:37.367Z,1010.26
2023-04-09T07:49:37.338Z,1010.25
2023-04-09T07:50:37.342Z,1010.25
2023-04-09T07:51:37.325Z,1010.24
2023-04-09T07:52:37.301Z,1010.23
2023-04-09T07:53:37.314Z,1010.22
2023-04-09T07:54:37.267Z,1010.24
2023-04-09T07:55:37.264Z,1010.22
2023-04-09T07:56:37.266Z,1010.20
2023-04-09T07:57:37.231Z,1010.20
2023-04-09T07:58:37.240Z,1010.27
2023-04-09T07:59:37.208Z,1010.26
2023-04-09T08:00:37.194Z,1010.22
2023-04-09T08:01:37.323Z,1010.29
2023-04-09T08:02:37.261Z,1010.27
2023-04-09T08:03:37.369Z,1010.27
2023-04-09T08:04:37.298Z,1010.29
2023-04-09T08:05:37.116Z,1010.30
2023-04-09T08:06:37.107Z,1010.27
2023-04-09T08:07:37.094Z,1010.27
2023-04-09T08:08:37.092Z,1010.26
2023-04-09T08:09:37.068Z,1010.26
2023-04-09T08:10:37.056Z,1010.27
2023-04-09T08:11:37.035Z,1010.26
2023-04-09T08:12:37.030Z,1010.24
2023-04-09T08:13:37.040Z,1010.28
2023-04-09T08:14:37.012Z,1010.28
2023-04-09T08:15:36.984Z,1010.30
2023-04-09T08:16:37.081Z,1010.27
2023-04-09T08:17:37.045Z,1010.28
2023-04-09T08:18:37.729Z,1010.26
2023-04-09T08:19:37.860Z,1010.29
2023-04-09T08:20:36.944Z,1010.26
2023-04-09T08:21:36.901Z,1010.26
2023-04-09T08:22:36.905Z,1010.26
2023-04-09T08:23:36.888Z,1010.27
2023-04-09T08:24:36.892Z,1010.27
2023-04-09T08:25:36.855Z,1010.30
2023-04-09T08:26:36.838Z,1010.25
2023-04-09T08:27:36.821Z,1010.26
2023-04-09T08:28:36.819Z,1010.26
2023-04-09T08:29:36.818Z,1010.31
2023-04-09T08:30:36.817Z,1010.25
2023-04-09T08:31:36.815Z,1010.32
2023-04-09T08:32:36.808Z,1010.27
2023-04-09T08:33:36.762Z,1010.31
2023-04-09T08:34:36.763Z,1010.29
2023-04-09T08:35:36.738Z,1010.29
2023-04-09T08:36:36.781Z,1010.30
2023-04-09T08:37:36.693Z,1010.32
2023-04-09T08:38:36.701Z,1010.32
2023-04-09T08:39:36.678Z,1010.32
2023-04-09T08:40:36.665Z,1010.33
2023-04-09T08:41:36.635Z,1010.29
2023-04-09T08:42:36.628Z,1010.28
2023-04-09T08:43:53.211Z,1010.27
2023-04-09T08:44:37.617Z,1010.24
2023-04-09T08:45:36.804Z,1010.23
2023-04-09T08:46:36.578Z,1010.25
2023-04-09T08:47:36.672Z,1010.25
2023-04-09T08:48:36.686Z,1010.27
2023-04-09T08:49:36.558Z,1010.27
2023-04-09T08:50:36.532Z,1010.28
2023-04-09T08:51:36.534Z,1010.24
2023-04-09T08:52:36.503Z,1010.25
2023-04-09T08:53:36.463Z,1010.25
2023-04-09T08:54:36.533Z,1010.28
2023-04-09T08:55:36.454Z,1010.24
2023-04-09T08:56:36.440Z,1010.21
2023-04-09T08:57:36.422Z,1010.19
2023-04-09T08:58:36.441Z,1010.21
2023-04-09T08:59:36.412Z,1010.22
2023-04-09T09:00:36.385Z,1010.20
2023-04-09T09:01:36.482Z,1010.23
2023-04-09T09:02:36.466Z,1010.22
2023-04-09T09:03:36.438Z,1010.19
2023-04-09T09:04:36.356Z,1010.23
2023-04-09T09:05:36.323Z,1010.25
2023-04-09T09:06:36.309Z,1010.20
2023-04-09T09:07:36.296Z,1010.19
2023-04-09T09:08:36.274Z,1010.20
2023-04-09T09:09:36.256Z,1010.22
2023-04-09T09:10:36.285Z,1010.23
2023-04-09T09:11:36.238Z,1010.24
2023-04-09T09:12:36.228Z,1010.23
2023-04-09T09:13:36.211Z,1010.23
2023-04-09T09:14:36.217Z,1010.26
2023-04-09T09:15:36.202Z,1010.20
2023-04-09T09:16:36.260Z,1010.23
2023-04-09T09:17:36.183Z,1010.25
2023-04-09T09:18:36.141Z,1010.26
2023-04-09T09:19:36.135Z,1010.23
2023-04-09T09:20:36.133Z,1010.20
2023-04-09T09:21:36.104Z,1010.23
2023-04-09T09:22:36.088Z,1010.23
2023-04-09T09:23:36.113Z,1010.21
2023-04-09T09:24:36.075Z,1010.21
2023-04-09T09:25:36.067Z,1010.20
2023-04-09T09:26:36.034Z,1010.16
2023-04-09T09:27:36.026Z,1010.19
2023-04-09T09:28:36.015Z,1010.18
2023-04-09T09:29:35.988Z,1010.16
2023-04-09T09:30:36.025Z,1010.13
2023-04-09T09:31:35.967Z,1010.15
2023-04-09T09:32:35.989Z,1010.19
2023-04-09T09:33:35.961Z,1010.15
2023-04-09T09:34:35.940Z,1010.14
2023-04-09T09:35:36.052Z,1010.15
2023-04-09T09:36:35.909Z,1010.16
2023-04-09T09:37:35.894Z,1010.11
2023-04-09T09:38:35.907Z,1010.16
2023-04-09T09:39:36.014Z,1010.16
2023-04-09T09:40:35.877Z,1010.15
2023-04-09T09:41:35.859Z,1010.14
2023-04-09T09:42:35.828Z,1010.14
2023-04-09T09:43:35.867Z,1010.16
2023-04-09T09:44:35.807Z,1010.15
2023-04-09T09:45:35.823Z,1010.12
2023-04-09T09:46:35.952Z,1010.07
2023-04-09T09:47:35.805Z,1010.08
2023-04-09T09:48:35.774Z,1010.07
2023-04-09T09:49:35.726Z,1010.06
2023-04-09T09:50:35.721Z,1010.01
2023-04-09T09:51:35.744Z,1010.01
2023-04-09T09:52:35.695Z,1009.98
2023-04-09T09:53:35.663Z,1009.94
2023-04-09T09:54:35.670Z,1009.95
2023-04-09T09:55:35.649Z,1009.94
2023-04-09T09:56:35.676Z,1009.90
2023-04-09T09:57:35.687Z,1009.91
2023-04-09T09:58:35.692Z,1009.92
2023-04-09T09:59:35.602Z,1009.91
2023-04-09T10:00:35.586Z,1009.92
2023-04-09T10:01:35.647Z,1009.92
2023-04-09T10:02:35.621Z,1009.93
2023-04-09T10:03:35.589Z,1009.95
2023-04-09T10:04:35.654Z,1009.92
2023-04-09T10:05:35.514Z,1009.95
2023-04-09T10:06:35.519Z,1009.92
2023-04-09T10:07:35.543Z,1009.88
2023-04-09T10:08:35.474Z,1009.87
2023-04-09T10:09:35.497Z,1009.90
2023-04-09T10:10:35.482Z,1009.89
2023-04-09T10:11:35.455Z,1009.90
2023-04-09T10:12:35.429Z,1009.91
2023-04-09T10:13:35.472Z,1009.88
2023-04-09T10:14:35.420Z,1009.89
2023-04-09T10:15:35.406Z,1009.89
2023-04-09T10:16:35.418Z,1009.90
2023-04-09T10:17:35.389Z,1009.89
2023-04-09T10:18:35.343Z,1009.88
2023-04-09T10:19:35.340Z,1009.89
2023-04-09T10:20:35.317Z,1009.85
2023-04-09T10:21:35.328Z,1009.81
2023-04-09T10:22:35.283Z,1009.83
2023-04-09T10:23:35.289Z,1009.80
2023-04-09T10:24:35.298Z,1009.82
2023-04-09T10:25:35.360Z,1009.80
2023-04-09T10:26:35.263Z,1009.82
2023-04-09T10:27:35.223Z,1009.77
2023-04-09T10:28:35.214Z,1009.80
2023-04-09T10:29:35.186Z,1009.79
2023-04-09T10:30:35.252Z,1009.79
2023-04-09T10:31:35.273Z,1009.77
2023-04-09T10:32:35.242Z,1009.77
2023-04-09T10:33:35.121Z,1009.77
2023-04-09T10:34:35.174Z,1009.76
2023-04-09T10:35:35.123Z,1009.74
2023-04-09T10:36:35.112Z,1009.79
2023-04-09T10:37:35.119Z,1009.76
2023-04-09T10:38:35.082Z,1009.79
2023-04-09T10:39:35.063Z,1009.73
2023-04-09T10:40:35.051Z,1009.78
2023-04-09T10:41:35.179Z,1009.77
2023-04-09T10:42:35.036Z,1009.70
2023-04-09T10:43:35.004Z,1009.65
2023-04-09T10:44:35.004Z,1009.64
2023-04-09T10:45:35.002Z,1009.63
2023-04-09T10:46:35.035Z,1009.62
2023-04-09T10:47:35.002Z,1009.63
2023-04-09T10:48:34.983Z,1009.62
2023-04-09T10:49:34.922Z,1009.63
2023-04-09T10:50:34.916Z,1009.62
2023-04-09T10:51:34.904Z,1009.62
2023-04-09T10:52:34.889Z,1009.61
2023-04-09T10:53:34.880Z,1009.62
2023-04-09T10:54:34.912Z,1009.59
2023-04-09T10:55:34.889Z,1009.66
2023-04-09T10:56:34.837Z,1009.61
2023-04-09T10:57:34.836Z,1009.68
2023-04-09T10:58:34.842Z,1009.69
2023-04-09T10:59:34.798Z,1009.64
2023-04-09T11:00:34.783Z,1009.71
2023-04-09T11:01:34.913Z,1009.68
2023-04-09T11:02:34.882Z,1009.76
2023-04-09T11:03:34.764Z,1009.71
2023-04-09T11:04:34.772Z,1009.69
2023-04-09T11:05:34.698Z,1009.69
2023-04-09T11:06:34.705Z,1009.71
2023-04-09T11:07:34.708Z,1009.73
2023-04-09T11:08:34.704Z,1009.70
2023-04-09T11:09:34.662Z,1009.70
2023-04-09T11:10:34.649Z,1009.71
2023-04-09T11:11:34.661Z,1009.69
2023-04-09T11:12:34.654Z,1009.71
2023-04-09T11:13:34.755Z,1009.74
2023-04-09T11:14:34.595Z,1009.72
2023-04-09T11:15:34.577Z,1009.70
2023-04-09T11:16:41.808Z,1009.69
2023-04-09T11:17:34.602Z,1009.68
2023-04-09T11:18:34.580Z,1009.69
2023-04-09T11:19:34.526Z,1009.65
2023-04-09T11:20:34.533Z,1009.67
2023-04-09T11:21:35.787Z,1009.64
2023-04-09T11:22:34.510Z,1009.61
2023-04-09T11:23:34.494Z,1009.61
2023-04-09T11:24:34.557Z,1009.67
2023-04-09T11:25:34.441Z,1009.58
2023-04-09T11:26:34.433Z,1009.62
2023-04-09T11:27:34.423Z,1009.60
2023-04-09T11:28:34.411Z,1009.61
2023-04-09T11:29:34.393Z,1009.62
2023-04-09T11:30:34.490Z,1009.60
2023-04-09T11:31:34.375Z,1009.57
2023-04-09T11:32:34.354Z,1009.54
2023-04-09T11:33:34.387Z,1009.52
2023-04-09T11:34:34.324Z,1009.56
2023-04-09T11:35:34.316Z,1009.56
2023-04-09T11:36:34.304Z,1009.53
2023-04-09T11:37:34.282Z,1009.55
2023-04-09T11:38:34.274Z,1009.54
2023-04-09T11:39:34.253Z,1009.52
2023-04-09T11:40:34.237Z,1009.48
2023-04-09T11:41:34.234Z,1009.49
2023-04-09T11:42:34.194Z,1009.50
2023-04-09T11:43:34.210Z,1009.43
2023-04-09T11:44:34.193Z,1009.49
2023-04-09T11:45:34.171Z,1009.50
2023-04-09T11:46:34.203Z,1009.50
2023-04-09T11:47:34.181Z,1009.52
2023-04-09T11:48:34.147Z,1009.55
2023-04-09T11:49:34.127Z,1009.53
2023-04-09T11:50:34.098Z,1009.53
2023-04-09T11:51:34.092Z,1009.47
2023-04-09T11:52:34.079Z,1009.47
2023-04-09T11:53:34.095Z,1009.42
2023-04-09T11:54:34.055Z,1009.42
2023-04-09T11:55:34.045Z,1009.51
2023-04-09T11:56:34.021Z,1009.52
2023-04-09T11:57:34.015Z,1009.47
2023-04-09T11:58:34.004Z,1009.48
2023-04-09T11:59:34.003Z,1009.50
2023-04-09T12:00:33.976Z,1009.48
2023-04-09T12:01:34.020Z,1009.46
2023-04-09T12:02:34.061Z,1009.45
2023-04-09T12:03:34.244Z,1009.47
2023-04-09T12:04:34.088Z,1009.46
2023-04-09T12:05:33.909Z,1009.43